Private Wetterstation Sandau
Wetterdaten: Montag, 02.01.2012
Datum Zeit Temp. A. Feuchte A. Luftdruck Regen Wind Richtung Richtung Taupunkt Windchill
02.01.2012 00:02 10,1 C 93 % 1004,9 hPa 0,0 l/m 17,6 km/h (3 Bft) S-SO 157 9,0 C 10,1 C
02.01.2012 00:07 10,1 C 93 % 1004,8 hPa 0,0 l/m 11,5 km/h (2 Bft) S-SO 157 9,0 C 10,1 C
02.01.2012 00:12 10,1 C 93 % 1004,9 hPa 0,0 l/m 10,8 km/h (2 Bft) S-SO 157 9,0 C 10,1 C
02.01.2012 00:17 10,1 C 93 % 1004,5 hPa 0,0 l/m 13,3 km/h (3 Bft) SW 225 9,0 C 10,1 C
02.01.2012 00:22 10,2 C 93 % 1004,5 hPa 0,0 l/m 17,3 km/h (3 Bft) S 180 9,1 C 10,2 C
02.01.2012 00:27 10,2 C 93 % 1004,5 hPa 0,0 l/m 23,4 km/h (4 Bft) S 180 9,1 C 10,2 C
02.01.2012 00:32 10,3 C 93 % 1004,3 hPa 0,0 l/m 11,5 km/h (2 Bft) SW 225 9,2 C 10,3 C
02.01.2012 00:37 10,3 C 93 % 1004,2 hPa 0,0 l/m 10,8 km/h (2 Bft) S 180 9,2 C 10,3 C
02.01.2012 00:42 10,3 C 93 % 1004,3 hPa 0,0 l/m 9,4 km/h (2 Bft) S-SO 157 9,2 C 10,3 C
02.01.2012 00:47 10,4 C 93 % 1004,1 hPa 0,0 l/m 9,0 km/h (2 Bft) S 180 9,3 C 10,4 C
02.01.2012 00:52 10,4 C 93 % 1004,2 hPa 0,0 l/m 11,9 km/h (2 Bft) S-SW 202 9,3 C 10,4 C
02.01.2012 00:57 10,4 C 93 % 1004,0 hPa 0,0 l/m 7,6 km/h (2 Bft) SO 135 9,3 C 10,4 C
02.01.2012 01:02 10,4 C 93 % 1004,0 hPa 0,0 l/m 20,2 km/h (4 Bft) S 180 9,3 C 10,4 C
02.01.2012 01:07 10,5 C 93 % 1003,9 hPa 0,0 l/m 19,4 km/h (3 Bft) S-SO 157 9,4 C 10,5 C
02.01.2012 01:12 10,5 C 93 % 1004,0 hPa 0,0 l/m 18,0 km/h (3 Bft) S 180 9,4 C 10,5 C
02.01.2012 01:17 10,5 C 93 % 1003,9 hPa 0,0 l/m 12,2 km/h (2 Bft) S-SO 157 9,4 C 10,5 C
02.01.2012 01:22 10,5 C 93 % 1003,9 hPa 0,0 l/m 18,7 km/h (3 Bft) S-SW 202 9,4 C 10,5 C
02.01.2012 01:27 10,6 C 93 % 1004,0 hPa 0,0 l/m 15,5 km/h (3 Bft) SO 135 9,5 C 10,6 C
02.01.2012 01:32 10,6 C 92 % 1004,0 hPa 0,0 l/m 22,0 km/h (4 Bft) S-SW 202 9,4 C 10,6 C
02.01.2012 01:37 10,6 C 92 % 1003,9 hPa 0,0 l/m 23,0 km/h (4 Bft) S-SO 157 9,4 C 10,6 C
02.01.2012 01:42 10,6 C 92 % 1003,7 hPa 0,0 l/m 7,2 km/h (2 Bft) S 180 9,4 C 10,6 C
02.01.2012 01:47 10,6 C 92 % 1003,4 hPa 0,0 l/m 22,0 km/h (4 Bft) SO 135 9,4 C 10,6 C
02.01.2012 01:52 10,6 C 92 % 1003,4 hPa 0,0 l/m 13,3 km/h (3 Bft) SW 225 9,4 C 10,6 C
02.01.2012 01:57 10,6 C 92 % 1003,3 hPa 0,0 l/m 15,5 km/h (3 Bft) S 180 9,4 C 10,6 C
02.01.2012 02:02 10,7 C 92 % 1003,4 hPa 0,0 l/m 21,6 km/h (4 Bft) S-SO 157 9,5 C 10,7 C
02.01.2012 02:07 10,7 C 92 % 1003,3 hPa 0,0 l/m 14,8 km/h (3 Bft) S 180 9,5 C 10,7 C
02.01.2012 02:12 10,7 C 92 % 1003,3 hPa 0,0 l/m 19,8 km/h (3 Bft) SO 135 9,5 C 10,7 C
02.01.2012 02:17 10,8 C 92 % 1003,4 hPa 0,0 l/m 9,0 km/h (2 Bft) S 180 9,6 C 10,8 C
02.01.2012 02:22 10,8 C 91 % 1003,3 hPa 0,0 l/m 16,9 km/h (3 Bft) S-SW 202 9,4 C 10,8 C
02.01.2012 02:27 10,8 C 91 % 1003,1 hPa 0,0 l/m 15,8 km/h (3 Bft) SO 135 9,4 C 10,8 C
02.01.2012 02:32 10,9 C 91 % 1003,1 hPa 0,0 l/m 16,6 km/h (3 Bft) W-SW 247 9,5 C 10,9 C
02.01.2012 02:37 10,9 C 91 % 1003,0 hPa 0,0 l/m 18,4 km/h (3 Bft) S 180 9,5 C 10,9 C
02.01.2012 02:42 10,9 C 91 % 1002,8 hPa 0,0 l/m 13,3 km/h (3 Bft) S-SO 157 9,5 C 10,9 C
02.01.2012 02:47 10,9 C 91 % 1002,7 hPa 0,0 l/m 23,0 km/h (4 Bft) S 180 9,5 C 10,9 C
02.01.2012 02:52 10,9 C 91 % 1002,7 hPa 0,0 l/m 10,1 km/h (2 Bft) S 180 9,5 C 10,9 C
02.01.2012 02:57 10,9 C 91 % 1002,7 hPa 0,0 l/m 8,3 km/h (2 Bft) SW 225 9,5 C 10,9 C
02.01.2012 03:02 10,9 C 91 % 1002,5 hPa 0,0 l/m 17,3 km/h (3 Bft) S-SO 157 9,5 C 10,9 C
02.01.2012 03:07 10,9 C 91 % 1002,4 hPa 0,0 l/m 17,3 km/h (3 Bft) SO 135 9,5 C 10,9 C
02.01.2012 03:12 10,9 C 91 % 1002,4 hPa 0,0 l/m 19,1 km/h (3 Bft) SO 135 9,5 C 10,9 C
02.01.2012 03:17 10,9 C 91 % 1002,3 hPa 0,0 l/m 12,2 km/h (2 Bft) S-SO 157 9,5 C 10,9 C
02.01.2012 03:22 10,9 C 91 % 1002,3 hPa 0,0 l/m 24,8 km/h (4 Bft) S 180 9,5 C 10,9 C
02.01.2012 03:27 10,9 C 90 % 1002,3 hPa 0,0 l/m 19,1 km/h (3 Bft) SO 135 9,3 C 10,9 C
02.01.2012 03:32 10,9 C 90 % 1002,2 hPa 0,0 l/m 11,5 km/h (2 Bft) S 180 9,3 C 10,9 C
02.01.2012 03:37 11,0 C 90 % 1002,0 hPa 0,0 l/m 9,4 km/h (2 Bft) S-SW 202 9,4 C 11,0 C
02.01.2012 03:42 11,1 C 90 % 1002,1 hPa 0,0 l/m 13,0 km/h (3 Bft) S 180 9,5 C 11,1 C
02.01.2012 03:47 11,1 C 90 % 1002,1 hPa 0,0 l/m 13,0 km/h (3 Bft) S 180 9,5 C 11,1 C
02.01.2012 03:52 11,3 C 90 % 1002,0 hPa 0,0 l/m 12,6 km/h (3 Bft) S 180 9,7 C 11,3 C
02.01.2012 03:57 11,3 C 90 % 1001,9 hPa 0,0 l/m 12,6 km/h (3 Bft) S-SW 202 9,7 C 11,3 C
02.01.2012 04:02 11,4 C 89 % 1001,7 hPa 0,0 l/m 20,5 km/h (4 Bft) W-SW 247 9,7 C 11,4 C
02.01.2012 04:07 11,6 C 89 % 1001,7 hPa 0,0 l/m 7,6 km/h (2 Bft) S 180 9,8 C 11,6 C
02.01.2012 04:12 11,6 C 89 % 1001,7 hPa 0,0 l/m 10,4 km/h (2 Bft) S-SW 202 9,8 C 11,6 C
02.01.2012 04:17 11,6 C 89 % 1001,8 hPa 0,0 l/m 22,3 km/h (4 Bft) SW 225 9,8 C 11,6 C
02.01.2012 04:22 11,6 C 88 % 1001,8 hPa 0,0 l/m 14,4 km/h (3 Bft) S-SO 157 9,7 C 11,6 C
02.01.2012 04:27 11,8 C 88 % 1001,6 hPa 0,0 l/m 18,0 km/h (3 Bft) SW 225 9,9 C 11,8 C
02.01.2012 04:32 11,8 C 88 % 1001,7 hPa 0,0 l/m 16,6 km/h (3 Bft) S-SO 157 9,9 C 11,8 C
02.01.2012 04:37 11,9 C 87 % 1001,5 hPa 0,0 l/m 10,4 km/h (2 Bft) SW 225 9,8 C 11,9 C
02.01.2012 04:42 11,9 C 87 % 1001,5 hPa 0,0 l/m 23,4 km/h (4 Bft) SW 225 9,8 C 11,9 C
02.01.2012 04:47 11,9 C 87 % 1001,5 hPa 0,0 l/m 21,6 km/h (4 Bft) W-SW 247 9,8 C 11,9 C
02.01.2012 04:52 12,1 C 87 % 1001,6 hPa 0,0 l/m 23,0 km/h (4 Bft) S-SW 202 10,0 C 12,1 C
02.01.2012 04:57 12,1 C 86 % 1001,6 hPa 0,0 l/m 10,4 km/h (2 Bft) SW 225 9,8 C 12,1 C
02.01.2012 05:02 12,2 C 86 % 1001,6 hPa 0,0 l/m 20,9 km/h (4 Bft) SW 225 9,9 C 12,2 C
02.01.2012 05:07 12,3 C 86 % 1001,6 hPa 0,0 l/m 12,6 km/h (3 Bft) SO 135 10,0 C 12,3 C
02.01.2012 05:12 12,3 C 86 % 1001,8 hPa 0,0 l/m 13,7 km/h (3 Bft) S 180 10,0 C 12,3 C
02.01.2012 05:17 12,3 C 86 % 1001,8 hPa 0,0 l/m 14,8 km/h (3 Bft) SW 225 10,0 C 12,3 C
02.01.2012 05:22 12,2 C 86 % 1002,0 hPa 0,0 l/m 10,8 km/h (2 Bft) SW 225 9,9 C 12,2 C
02.01.2012 05:27 12,1 C 86 % 1002,3 hPa 0,0 l/m 7,6 km/h (2 Bft) SW 225 9,8 C 12,1 C
02.01.2012 05:32 12,1 C 87 % 1002,2 hPa 0,0 l/m 16,9 km/h (3 Bft) W 270 10,0 C 12,1 C
02.01.2012 05:37 12,1 C 87 % 1002,3 hPa 0,0 l/m 14,8 km/h (3 Bft) W-SW 247 10,0 C 12,1 C
02.01.2012 05:42 11,9 C 87 % 1002,4 hPa 0,0 l/m 19,4 km/h (3 Bft) SW 225 9,8 C 11,9 C
02.01.2012 05:47 11,9 C 87 % 1002,7 hPa 0,0 l/m 11,5 km/h (2 Bft) W-SW 247 9,8 C 11,9 C
02.01.2012 05:52 11,9 C 88 % 1002,6 hPa 0,0 l/m 7,2 km/h (2 Bft) W-SW 247 10,0 C 11,9 C
02.01.2012 05:57 11,8 C 87 % 1002,6 hPa 0,0 l/m 7,6 km/h (2 Bft) W 270 9,7 C 11,8 C
02.01.2012 06:02 11,8 C 87 % 1002,7 hPa 0,0 l/m 13,3 km/h (3 Bft) NW 315 9,7 C 11,8 C
02.01.2012 06:07 11,7 C 87 % 1002,5 hPa 0,0 l/m 15,5 km/h (3 Bft) W-SW 247 9,6 C 11,7 C
02.01.2012 06:12 11,6 C 87 % 1002,7 hPa 0,0 l/m 9,7 km/h (2 Bft) W-SW 247 9,5 C 11,6 C
02.01.2012 06:17 11,6 C 87 % 1002,7 hPa 0,0 l/m 13,0 km/h (3 Bft) W-SW 247 9,5 C 11,6 C
02.01.2012 06:22 11,5 C 87 % 1002,6 hPa 0,0 l/m 10,4 km/h (2 Bft) W-SW 247 9,4 C 11,5 C
02.01.2012 06:27 11,4 C 87 % 1002,7 hPa 0,0 l/m 19,1 km/h (3 Bft) W-SW 247 9,3 C 11,4 C
02.01.2012 06:32 11,3 C 87 % 1002,8 hPa 0,0 l/m 20,9 km/h (4 Bft) W-SW 247 9,2 C 11,3 C
02.01.2012 06:37 11,2 C 87 % 1003,0 hPa 0,0 l/m 15,5 km/h (3 Bft) W-SW 247 9,1 C 11,2 C
02.01.2012 06:42 11,1 C 87 % 1003,0 hPa 0,0 l/m 15,1 km/h (3 Bft) SW 225 9,0 C 11,1 C
02.01.2012 06:47 11,1 C 87 % 1003,0 hPa 0,0 l/m 13,7 km/h (3 Bft) SW 225 9,0 C 11,1 C
02.01.2012 06:52 11,1 C 87 % 1003,2 hPa 0,0 l/m 14,4 km/h (3 Bft) S-SW 202 9,0 C 11,1 C
02.01.2012 06:57 10,9 C 87 % 1003,2 hPa 0,0 l/m 9,4 km/h (2 Bft) W-NW 292 8,8 C 10,9 C
02.01.2012 07:02 10,9 C 87 % 1003,3 hPa 0,0 l/m 6,5 km/h (2 Bft) W-SW 247 8,8 C 10,9 C
02.01.2012 07:07 10,9 C 87 % 1003,3 hPa 0,0 l/m 11,2 km/h (2 Bft) W-SW 247 8,8 C 10,9 C
02.01.2012 07:12 10,9 C 87 % 1003,5 hPa 0,0 l/m 15,1 km/h (3 Bft) SW 225 8,8 C 10,9 C
02.01.2012 07:17 10,8 C 87 % 1003,4 hPa 0,0 l/m 16,9 km/h (3 Bft) SW 225 8,7 C 10,8 C
02.01.2012 07:22 10,8 C 87 % 1003,4 hPa 0,0 l/m 8,3 km/h (2 Bft) W-SW 247 8,7 C 10,8 C
02.01.2012 07:27 10,8 C 87 % 1003,4 hPa 0,0 l/m 14,0 km/h (3 Bft) W-SW 247 8,7 C 10,8 C
02.01.2012 07:32 10,7 C 87 % 1003,4 hPa 0,0 l/m 14,4 km/h (3 Bft) W-SW 247 8,6 C 10,7 C
02.01.2012 07:37 10,6 C 87 % 1003,4 hPa 0,0 l/m 19,8 km/h (3 Bft) W-SW 247 8,5 C 10,6 C
02.01.2012 07:42 10,6 C 88 % 1003,4 hPa 0,0 l/m 16,9 km/h (3 Bft) W-SW 247 8,7 C 10,6 C
02.01.2012 07:47 10,6 C 88 % 1003,6 hPa 0,0 l/m 7,2 km/h (2 Bft) W-SW 247 8,7 C 10,6 C
02.01.2012 07:52 10,5 C 88 % 1003,5 hPa 0,0 l/m 10,8 km/h (2 Bft) W-NW 292 8,6 C 10,5 C
02.01.2012 07:57 10,5 C 88 % 1003,7 hPa 0,0 l/m 13,0 km/h (3 Bft) W 270 8,6 C 10,5 C
02.01.2012 08:02 10,4 C 88 % 1003,9 hPa 0,0 l/m 4,7 km/h (1 Bft) W 270 8,5 C 10,4 C
02.01.2012 08:07 10,4 C 88 % 1004,0 hPa 0,0 l/m 16,9 km/h (3 Bft) W 270 8,5 C 10,4 C
02.01.2012 08:12 10,4 C 88 % 1004,1 hPa 0,0 l/m 9,7 km/h (2 Bft) SW 225 8,5 C 10,4 C
02.01.2012 08:17 10,4 C 88 % 1004,1 hPa 0,0 l/m 11,5 km/h (2 Bft) W 270 8,5 C 10,4 C
02.01.2012 08:22 10,3 C 88 % 1004,1 hPa 0,0 l/m 6,5 km/h (2 Bft) W 270 8,4 C 10,3 C
02.01.2012 08:27 10,3 C 88 % 1004,2 hPa 0,0 l/m 10,4 km/h (2 Bft) W-SW 247 8,4 C 10,3 C
02.01.2012 08:32 10,2 C 88 % 1004,2 hPa 0,0 l/m 9,7 km/h (2 Bft) W-SW 247 8,3 C 10,2 C
02.01.2012 08:37 10,2 C 88 % 1004,3 hPa 0,5 l/m 16,6 km/h (3 Bft) W-SW 247 8,3 C 10,2 C
02.01.2012 08:42 10,2 C 88 % 1004,2 hPa 0,0 l/m 10,8 km/h (2 Bft) W-SW 247 8,3 C 10,2 C
02.01.2012 08:47 10,1 C 89 % 1004,3 hPa 0,0 l/m 6,8 km/h (2 Bft) W-SW 247 8,4 C 10,1 C
02.01.2012 08:52 10,1 C 89 % 1004,3 hPa 0,0 l/m 11,5 km/h (2 Bft) W-SW 247 8,4 C 10,1 C
02.01.2012 08:57 10,1 C 89 % 1004,4 hPa 0,0 l/m 6,1 km/h (2 Bft) W 270 8,4 C 10,1 C
02.01.2012 09:02 10,1 C 89 % 1004,2 hPa 0,0 l/m 7,2 km/h (2 Bft) W-SW 247 8,4 C 10,1 C
02.01.2012 09:07 10,0 C 89 % 1004,4 hPa 0,0 l/m 7,9 km/h (2 Bft) W-SW 247 8,3 C 9,0 C
02.01.2012 09:12 9,9 C 89 % 1004,2 hPa 0,0 l/m 4,0 km/h (1 Bft) W-SW 247 8,2 C 9,9 C
02.01.2012 09:17 9,9 C 89 % 1004,4 hPa 0,0 l/m 10,8 km/h (2 Bft) W-SW 247 8,2 C 8,4 C
02.01.2012 09:22 9,9 C 89 % 1004,5 hPa 0,0 l/m 6,1 km/h (2 Bft) W-SW 247 8,2 C 9,3 C
02.01.2012 09:27 9,9 C 89 % 1004,5 hPa 0,0 l/m 6,1 km/h (2 Bft) W-SW 247 8,2 C 9,3 C
02.01.2012 09:32 9,9 C 89 % 1004,7 hPa 0,0 l/m 3,6 km/h (1 Bft) W 270 8,2 C 9,9 C
02.01.2012 09:37 9,9 C 89 % 1004,8 hPa 0,0 l/m 4,0 km/h (1 Bft) W-SW 247 8,2 C 9,9 C
02.01.2012 09:42 9,9 C 89 % 1004,9 hPa 0,0 l/m 7,6 km/h (2 Bft) W-SW 247 8,2 C 9,0 C
02.01.2012 09:47 9,9 C 89 % 1004,8 hPa 0,0 l/m 10,1 km/h (2 Bft) W-SW 247 8,2 C 8,5 C
02.01.2012 09:52 9,9 C 89 % 1005,0 hPa 0,0 l/m 8,3 km/h (2 Bft) S-SW 202 8,2 C 8,8 C
02.01.2012 09:57 9,9 C 89 % 1005,0 hPa 0,0 l/m 11,2 km/h (2 Bft) W-SW 247 8,2 C 8,3 C
02.01.2012 10:02 9,9 C 89 % 1005,0 hPa 0,0 l/m 9,4 km/h (2 Bft) W 270 8,2 C 8,6 C
02.01.2012 10:07 9,9 C 89 % 1005,0 hPa 0,0 l/m 6,5 km/h (2 Bft) W-SW 247 8,2 C 9,2 C
02.01.2012 10:12 9,9 C 89 % 1005,3 hPa 0,0 l/m 8,3 km/h (2 Bft) W-SW 247 8,2 C 8,8 C
02.01.2012 10:17 9,9 C 89 % 1005,1 hPa 0,0 l/m 9,0 km/h (2 Bft) W-SW 247 8,2 C 8,7 C
02.01.2012 10:22 9,9 C 89 % 1005,2 hPa 0,0 l/m 10,1 km/h (2 Bft) W-SW 247 8,2 C 8,5 C
02.01.2012 10:27 9,9 C 89 % 1005,2 hPa 0,0 l/m 3,6 km/h (1 Bft) W-SW 247 8,2 C 9,9 C
02.01.2012 10:32 9,9 C 89 % 1005,2 hPa 0,0 l/m 6,1 km/h (2 Bft) W-SW 247 8,2 C 9,3 C
02.01.2012 10:37 9,9 C 89 % 1005,2 hPa 0,0 l/m 4,7 km/h (1 Bft) W-SW 247 8,2 C 9,7 C
02.01.2012 10:42 9,9 C 89 % 1005,2 hPa 0,0 l/m 4,3 km/h (1 Bft) W-SW 247 8,2 C 9,9 C
02.01.2012 10:47 9,9 C 89 % 1005,1 hPa 0,0 l/m 8,6 km/h (2 Bft) W-SW 247 8,2 C 8,8 C
02.01.2012 10:52 9,9 C 89 % 1005,2 hPa 0,0 l/m 5,0 km/h (1 Bft) S-SW 202 8,2 C 9,6 C
02.01.2012 10:57 9,9 C 89 % 1005,3 hPa 0,0 l/m 9,7 km/h (2 Bft) W-SW 247 8,2 C 8,6 C
02.01.2012 11:02 9,9 C 89 % 1005,2 hPa 0,0 l/m 5,8 km/h (2 Bft) SW 225 8,2 C 9,4 C
02.01.2012 11:07 9,9 C 89 % 1005,2 hPa 0,0 l/m 3,6 km/h (1 Bft) W-SW 247 8,2 C 9,9 C
02.01.2012 11:12 10,1 C 89 % 1005,2 hPa 0,0 l/m 5,4 km/h (1 Bft) W-SW 247 8,4 C 10,1 C
02.01.2012 11:17 10,1 C 89 % 1005,1 hPa 0,0 l/m 5,8 km/h (2 Bft) SW 225 8,4 C 10,1 C
02.01.2012 11:22 10,1 C 89 % 1005,2 hPa 0,0 l/m 6,5 km/h (2 Bft) W 270 8,4 C 10,1 C
02.01.2012 11:27 10,1 C 89 % 1005,1 hPa 0,0 l/m 5,0 km/h (1 Bft) SW 225 8,4 C 10,1 C
02.01.2012 11:32 10,3 C 89 % 1005,1 hPa 0,0 l/m 7,2 km/h (2 Bft) S-SW 202 8,6 C 10,3 C
02.01.2012 11:37 10,5 C 89 % 1005,1 hPa 0,0 l/m 9,7 km/h (2 Bft) W-SW 247 8,8 C 10,5 C
02.01.2012 11:42 10,5 C 89 % 1005,1 hPa 0,0 l/m 3,2 km/h (1 Bft) S-SW 202 8,8 C 10,5 C
02.01.2012 11:47 10,5 C 89 % 1005,2 hPa 0,0 l/m 9,4 km/h (2 Bft) S-SW 202 8,8 C 10,5 C
02.01.2012 11:52 10,5 C 89 % 1005,1 hPa 0,0 l/m 7,9 km/h (2 Bft) W-SW 247 8,8 C 10,5 C
02.01.2012 11:57 10,4 C 89 % 1005,0 hPa 0,0 l/m 6,1 km/h (2 Bft) SW 225 8,7 C 10,4 C
02.01.2012 12:02 10,4 C 89 % 1005,1 hPa 0,0 l/m 6,1 km/h (2 Bft) W 270 8,7 C 10,4 C
02.01.2012 12:07 10,3 C 89 % 1005,0 hPa 0,0 l/m 4,7 km/h (1 Bft) W-SW 247 8,6 C 10,3 C
02.01.2012 12:12 10,2 C 89 % 1005,0 hPa 0,0 l/m 11,5 km/h (2 Bft) W-SW 247 8,5 C 10,2 C
02.01.2012 12:17 10,2 C 89 % 1005,1 hPa 0,0 l/m 7,6 km/h (2 Bft) W 270 8,5 C 10,2 C
02.01.2012 12:22 10,1 C 89 % 1005,1 hPa 0,0 l/m 5,8 km/h (2 Bft) S-SW 202 8,4 C 10,1 C
02.01.2012 12:27 10,1 C 90 % 1005,1 hPa 0,0 l/m 10,4 km/h (2 Bft) W-SW 247 8,5 C 10,1 C
02.01.2012 12:32 10,1 C 90 % 1005,1 hPa 0,5 l/m 10,1 km/h (2 Bft) W-SW 247 8,5 C 10,1 C
02.01.2012 12:37 10,0 C 90 % 1005,0 hPa 0,0 l/m 7,6 km/h (2 Bft) W 270 8,4 C 9,1 C
02.01.2012 12:42 9,9 C 90 % 1005,1 hPa 0,0 l/m 5,8 km/h (2 Bft) W 270 8,3 C 9,4 C
02.01.2012 12:47 9,9 C 90 % 1005,1 hPa 0,5 l/m 12,6 km/h (3 Bft) W-NW 292 8,3 C 8,1 C
02.01.2012 12:52 9,9 C 90 % 1005,2 hPa 0,0 l/m 11,2 km/h (2 Bft) W-SW 247 8,3 C 8,3 C
02.01.2012 12:57 9,8 C 90 % 1005,3 hPa 0,0 l/m 8,3 km/h (2 Bft) W 270 8,2 C 8,7 C
02.01.2012 13:02 9,8 C 90 % 1005,3 hPa 0,5 l/m 10,1 km/h (2 Bft) W-NW 292 8,2 C 8,4 C
02.01.2012 13:07 9,6 C 90 % 1005,3 hPa 0,0 l/m 10,8 km/h (2 Bft) W-NW 292 8,0 C 8,0 C
02.01.2012 13:12 9,6 C 90 % 1005,3 hPa 0,0 l/m 5,8 km/h (2 Bft) NW 315 8,0 C 9,1 C
02.01.2012 13:17 9,5 C 89 % 1005,3 hPa 0,0 l/m 4,0 km/h (1 Bft) W 270 7,8 C 9,5 C
02.01.2012 13:22 9,5 C 89 % 1005,4 hPa 0,0 l/m 2,9 km/h (1 Bft) W 270 7,8 C 9,5 C
02.01.2012 13:27 9,4 C 89 % 1005,3 hPa 0,0 l/m 6,1 km/h (2 Bft) SW 225 7,7 C 8,8 C
02.01.2012 13:32 9,4 C 89 % 1005,4 hPa 0,0 l/m 2,9 km/h (1 Bft) W 270 7,7 C 9,4 C
02.01.2012 13:37 9,3 C 88 % 1005,6 hPa 0,0 l/m 5,8 km/h (2 Bft) W-NW 292 7,4 C 8,7 C
02.01.2012 13:42 9,3 C 88 % 1005,7 hPa 0,0 l/m 3,6 km/h (1 Bft) W 270 7,4 C 9,3 C
02.01.2012 13:47 9,3 C 89 % 1005,7 hPa 0,0 l/m 4,3 km/h (1 Bft) W 270 7,6 C 9,3 C
02.01.2012 13:52 9,3 C 89 % 1005,8 hPa 0,0 l/m 5,8 km/h (2 Bft) W-SW 247 7,6 C 8,7 C
02.01.2012 13:57 9,2 C 89 % 1006,0 hPa 0,0 l/m 6,5 km/h (2 Bft) W-SW 247 7,5 C 8,4 C
02.01.2012 14:02 9,2 C 89 % 1005,9 hPa 0,0 l/m 4,0 km/h (1 Bft) W-SW 247 7,5 C 9,2 C
02.01.2012 14:07 9,2 C 89 % 1006,0 hPa 0,0 l/m 11,9 km/h (2 Bft) W-SW 247 7,5 C 7,4 C
02.01.2012 14:12 9,2 C 89 % 1006,2 hPa 0,0 l/m 9,7 km/h (2 Bft) W-SW 247 7,5 C 7,7 C
02.01.2012 14:17 9,1 C 89 % 1006,1 hPa 0,0 l/m 5,0 km/h (1 Bft) W-SW 247 7,4 C 8,7 C
02.01.2012 14:22 9,1 C 89 % 1006,1 hPa 0,0 l/m 4,3 km/h (1 Bft) SW 225 7,4 C 9,1 C
02.01.2012 14:27 9,1 C 89 % 1006,1 hPa 0,0 l/m 7,9 km/h (2 Bft) W-SW 247 7,4 C 8,0 C
02.01.2012 14:32 9,1 C 89 % 1006,1 hPa 0,0 l/m 4,7 km/h (1 Bft) SW 225 7,4 C 8,8 C
02.01.2012 14:37 9,1 C 89 % 1006,2 hPa 0,0 l/m 4,0 km/h (1 Bft) W-SW 247 7,4 C 9,1 C
02.01.2012 14:42 9,1 C 89 % 1006,2 hPa 0,0 l/m 9,0 km/h (2 Bft) W-SW 247 7,4 C 7,7 C
02.01.2012 14:47 9,1 C 89 % 1006,3 hPa 0,0 l/m 6,5 km/h (2 Bft) W-SW 247 7,4 C 8,3 C
02.01.2012 14:52 9,0 C 89 % 1006,4 hPa 0,0 l/m 8,6 km/h (2 Bft) W-SW 247 7,3 C 7,7 C
02.01.2012 14:57 9,0 C 89 % 1006,5 hPa 0,0 l/m 14,8 km/h (3 Bft) W-SW 247 7,3 C 6,7 C
02.01.2012 15:02 9,0 C 89 % 1006,6 hPa 0,0 l/m 14,0 km/h (3 Bft) W-SW 247 7,3 C 6,8 C
02.01.2012 15:07 9,0 C 89 % 1006,6 hPa 0,0 l/m 5,0 km/h (1 Bft) W-SW 247 7,3 C 8,6 C
02.01.2012 15:12 9,0 C 89 % 1006,8 hPa 0,0 l/m 11,9 km/h (2 Bft) W-SW 247 7,3 C 7,1 C
02.01.2012 15:17 9,0 C 89 % 1007,0 hPa 0,0 l/m 8,3 km/h (2 Bft) W 270 7,3 C 7,8 C
02.01.2012 15:22 8,9 C 89 % 1007,0 hPa 0,0 l/m 7,6 km/h (2 Bft) W 270 7,2 C 7,8 C
02.01.2012 15:27 8,9 C 89 % 1007,1 hPa 0,0 l/m 13,3 km/h (3 Bft) W-SW 247 7,2 C 6,8 C
02.01.2012 15:32 8,9 C 89 % 1007,3 hPa 0,5 l/m 14,0 km/h (3 Bft) W-SW 247 7,2 C 6,7 C
02.01.2012 15:37 8,9 C 89 % 1007,4 hPa 0,0 l/m 14,8 km/h (3 Bft) W-SW 247 7,2 C 6,6 C
02.01.2012 15:42 8,8 C 89 % 1007,4 hPa 0,0 l/m 15,1 km/h (3 Bft) W-SW 247 7,1 C 6,4 C
02.01.2012 15:47 8,5 C 88 % 1007,5 hPa 0,5 l/m 5,8 km/h (2 Bft) W 270 6,6 C 7,8 C
02.01.2012 15:52 8,4 C 88 % 1007,6 hPa 0,0 l/m 6,8 km/h (2 Bft) W 270 6,5 C 7,4 C
02.01.2012 15:57 8,2 C 88 % 1007,5 hPa 0,5 l/m 10,1 km/h (2 Bft) W-SW 247 6,3 C 6,5 C
02.01.2012 16:02 8,1 C 88 % 1007,6 hPa 0,5 l/m 14,0 km/h (3 Bft) W-SW 247 6,2 C 5,7 C
02.01.2012 16:07 8,1 C 88 % 1007,6 hPa 0,0 l/m 12,2 km/h (2 Bft) SW 225 6,2 C 6,0 C
02.01.2012 16:12 8,1 C 89 % 1007,7 hPa 0,0 l/m 13,0 km/h (3 Bft) SW 225 6,4 C 5,9 C
02.01.2012 16:17 8,1 C 89 % 1007,8 hPa 0,0 l/m 9,0 km/h (2 Bft) SW 225 6,4 C 6,6 C
02.01.2012 16:22 8,2 C 89 % 1007,9 hPa 0,0 l/m 9,0 km/h (2 Bft) W 270 6,5 C 6,7 C
02.01.2012 16:27 8,2 C 89 % 1008,0 hPa 0,0 l/m 9,0 km/h (2 Bft) W-SW 247 6,5 C 6,7 C
02.01.2012 16:32 8,1 C 89 % 1008,1 hPa 0,0 l/m 14,4 km/h (3 Bft) W-SW 247 6,4 C 5,7 C
02.01.2012 16:37 8,1 C 89 % 1008,2 hPa 0,0 l/m 16,6 km/h (3 Bft) W-SW 247 6,4 C 5,4 C
02.01.2012 16:42 8,1 C 89 % 1008,2 hPa 0,0 l/m 17,3 km/h (3 Bft) W-SW 247 6,4 C 5,3 C
02.01.2012 16:47 8,1 C 89 % 1008,5 hPa 0,0 l/m 7,6 km/h (2 Bft) W 270 6,4 C 6,9 C
02.01.2012 16:52 8,1 C 89 % 1008,6 hPa 0,0 l/m 11,5 km/h (2 Bft) W-SW 247 6,4 C 6,1 C
02.01.2012 16:57 8,1 C 89 % 1008,5 hPa 0,0 l/m 4,7 km/h (1 Bft) SW 225 6,4 C 7,7 C
02.01.2012 17:02 8,1 C 89 % 1008,7 hPa 0,0 l/m 2,9 km/h (1 Bft) W-SW 247 6,4 C 8,1 C
02.01.2012 17:07 8,0 C 89 % 1008,7 hPa 0,0 l/m 10,1 km/h (2 Bft) W-SW 247 6,3 C 6,2 C
02.01.2012 17:12 7,9 C 89 % 1008,8 hPa 0,0 l/m 5,0 km/h (1 Bft) W-SW 247 6,2 C 7,4 C
02.01.2012 17:17 7,9 C 89 % 1009,0 hPa 0,0 l/m 8,3 km/h (2 Bft) W-NW 292 6,2 C 6,5 C
02.01.2012 17:22 7,9 C 89 % 1009,1 hPa 0,0 l/m 3,6 km/h (1 Bft) W 270 6,2 C 7,9 C
02.01.2012 17:27 7,9 C 89 % 1009,1 hPa 0,0 l/m 4,7 km/h (1 Bft) W 270 6,2 C 7,5 C
02.01.2012 17:32 7,9 C 89 % 1009,2 hPa 0,0 l/m 12,2 km/h (2 Bft) W 270 6,2 C 5,7 C
02.01.2012 17:37 7,9 C 89 % 1009,3 hPa 0,0 l/m 7,2 km/h (2 Bft) NW 315 6,2 C 6,7 C
02.01.2012 17:42 7,9 C 89 % 1009,5 hPa 0,0 l/m 7,2 km/h (2 Bft) SW 225 6,2 C 6,7 C
02.01.2012 17:47 7,8 C 89 % 1009,5 hPa 0,0 l/m 5,4 km/h (1 Bft) W 270 6,1 C 7,1 C
02.01.2012 17:52 7,8 C 89 % 1009,6 hPa 0,0 l/m 4,7 km/h (1 Bft) W-SW 247 6,1 C 7,4 C
02.01.2012 17:57 7,8 C 89 % 1009,7 hPa 0,0 l/m 6,5 km/h (2 Bft) W-NW 292 6,1 C 6,8 C
02.01.2012 18:02 7,6 C 89 % 1009,7 hPa 0,0 l/m 7,6 km/h (2 Bft) W 270 5,9 C 6,3 C
02.01.2012 18:07 7,6 C 89 % 1009,8 hPa 0,0 l/m 11,2 km/h (2 Bft) W-SW 247 5,9 C 5,5 C
02.01.2012 18:12 7,6 C 89 % 1009,9 hPa 0,0 l/m 10,1 km/h (2 Bft) W-SW 247 5,9 C 5,7 C
02.01.2012 18:17 7,5 C 89 % 1009,9 hPa 0,0 l/m 10,1 km/h (2 Bft) W 270 5,8 C 5,6 C
02.01.2012 18:22 7,4 C 89 % 1010,1 hPa 0,0 l/m 14,0 km/h (3 Bft) SW 225 5,7 C 4,9 C
02.01.2012 18:27 7,4 C 89 % 1010,0 hPa 0,0 l/m 13,7 km/h (3 Bft) W-SW 247 5,7 C 4,9 C
02.01.2012 18:32 7,4 C 90 % 1010,0 hPa 0,0 l/m 7,2 km/h (2 Bft) W-SW 247 5,9 C 6,1 C
02.01.2012 18:37 7,3 C 90 % 1010,1 hPa 0,0 l/m 9,4 km/h (2 Bft) W-SW 247 5,8 C 5,5 C
02.01.2012 18:42 7,3 C 90 % 1010,3 hPa 0,0 l/m 7,2 km/h (2 Bft) W 270 5,8 C 6,0 C
02.01.2012 18:47 7,3 C 90 % 1010,5 hPa 0,0 l/m 11,2 km/h (2 Bft) W-SW 247 5,8 C 5,2 C
02.01.2012 18:52 7,3 C 90 % 1010,7 hPa 0,0 l/m 9,7 km/h (2 Bft) W 270 5,8 C 5,5 C
02.01.2012 18:57 7,3 C 90 % 1010,9 hPa 0,0 l/m 13,7 km/h (3 Bft) W-SW 247 5,8 C 4,8 C
02.01.2012 19:02 7,3 C 90 % 1010,9 hPa 0,0 l/m 8,3 km/h (2 Bft) W-SW 247 5,8 C 5,8 C
02.01.2012 19:07 7,3 C 90 % 1011,0 hPa 0,0 l/m 11,2 km/h (2 Bft) W 270 5,8 C 5,2 C
02.01.2012 19:12 7,3 C 90 % 1011,1 hPa 0,0 l/m 12,6 km/h (3 Bft) W 270 5,8 C 4,9 C
02.01.2012 19:17 7,3 C 90 % 1011,2 hPa 0,0 l/m 12,6 km/h (3 Bft) W-SW 247 5,8 C 4,9 C
02.01.2012 19:22 7,3 C 90 % 1011,3 hPa 0,0 l/m 14,8 km/h (3 Bft) W-SW 247 5,8 C 4,6 C
02.01.2012 19:27 7,3 C 89 % 1011,4 hPa 0,0 l/m 10,4 km/h (2 Bft) W-SW 247 5,6 C 5,3 C
02.01.2012 19:32 7,3 C 89 % 1011,4 hPa 0,0 l/m 6,8 km/h (2 Bft) W-SW 247 5,6 C 6,1 C
02.01.2012 19:37 7,2 C 89 % 1011,4 hPa 0,0 l/m 10,8 km/h (2 Bft) W-SW 247 5,5 C 5,1 C
02.01.2012 19:42 7,2 C 89 % 1011,6 hPa 0,0 l/m 9,7 km/h (2 Bft) W-SW 247 5,5 C 5,3 C
02.01.2012 19:47 7,2 C 88 % 1011,5 hPa 0,0 l/m 8,3 km/h (2 Bft) W 270 5,3 C 5,6 C
02.01.2012 19:52 7,1 C 88 % 1011,6 hPa 0,0 l/m 9,7 km/h (2 Bft) W-SW 247 5,2 C 5,2 C
02.01.2012 19:57 7,1 C 88 % 1011,7 hPa 0,0 l/m 7,6 km/h (2 Bft) W-SW 247 5,2 C 5,7 C
02.01.2012 20:02 7,1 C 88 % 1011,8 hPa 0,0 l/m 9,7 km/h (2 Bft) W-SW 247 5,2 C 5,2 C
02.01.2012 20:07 7,0 C 88 % 1011,7 hPa 0,0 l/m 9,4 km/h (2 Bft) SW 225 5,2 C 5,2 C
02.01.2012 20:12 7,0 C 88 % 1011,9 hPa 0,0 l/m 4,0 km/h (1 Bft) W-SW 247 5,2 C 7,0 C
02.01.2012 20:17 6,9 C 88 % 1012,0 hPa 0,0 l/m 5,8 km/h (2 Bft) SW 225 5,1 C 6,0 C
02.01.2012 20:22 6,9 C 87 % 1012,0 hPa 0,0 l/m 6,5 km/h (2 Bft) SW 225 4,9 C 5,8 C
02.01.2012 20:27 6,9 C 87 % 1012,0 hPa 0,0 l/m 11,2 km/h (2 Bft) W-SW 247 4,9 C 4,7 C
02.01.2012 20:32 6,9 C 87 % 1012,2 hPa 0,0 l/m 5,8 km/h (2 Bft) W-SW 247 4,9 C 6,0 C
02.01.2012 20:37 6,9 C 87 % 1012,2 hPa 0,0 l/m 7,2 km/h (2 Bft) SW 225 4,9 C 5,6 C
02.01.2012 20:42 6,8 C 87 % 1012,3 hPa 0,0 l/m 3,2 km/h (1 Bft) S-SO 157 4,8 C 6,8 C
02.01.2012 20:47 6,8 C 87 % 1012,2 hPa 0,0 l/m 8,6 km/h (2 Bft) SW 225 4,8 C 5,1 C
02.01.2012 20:52 6,8 C 87 % 1012,4 hPa 0,0 l/m 7,6 km/h (2 Bft) W-SW 247 4,8 C 5,3 C
02.01.2012 20:57 6,8 C 88 % 1012,5 hPa 0,0 l/m 8,3 km/h (2 Bft) SW 225 5,0 C 5,2 C
02.01.2012 21:02 6,7 C 88 % 1012,7 hPa 0,0 l/m 9,0 km/h (2 Bft) W 270 4,9 C 4,9 C
02.01.2012 21:07 6,8 C 88 % 1012,6 hPa 0,0 l/m 7,6 km/h (2 Bft) W-SW 247 5,0 C 5,3 C
02.01.2012 21:12 6,8 C 88 % 1012,7 hPa 0,0 l/m 3,2 km/h (1 Bft) SW 225 5,0 C 6,8 C
02.01.2012 21:17 6,8 C 88 % 1013,0 hPa 0,0 l/m 8,6 km/h (2 Bft) W 270 5,0 C 5,1 C
02.01.2012 21:22 6,8 C 88 % 1013,0 hPa 0,0 l/m 17,3 km/h (3 Bft) W-SW 247 5,0 C 3,7 C
02.01.2012 21:27 6,8 C 88 % 1013,1 hPa 0,0 l/m 14,4 km/h (3 Bft) W-SW 247 5,0 C 4,1 C
02.01.2012 21:32 6,8 C 87 % 1013,1 hPa 0,0 l/m 15,1 km/h (3 Bft) W-SW 247 4,8 C 4,0 C
02.01.2012 21:37 6,8 C 87 % 1013,1 hPa 0,0 l/m 20,5 km/h (4 Bft) W-SW 247 4,8 C 3,3 C
02.01.2012 21:42 6,8 C 86 % 1013,4 hPa 0,0 l/m 13,0 km/h (3 Bft) W 270 4,6 C 4,3 C
02.01.2012 21:47 6,8 C 86 % 1013,2 hPa 0,0 l/m 15,5 km/h (3 Bft) SW 225 4,6 C 3,9 C
02.01.2012 21:52 6,7 C 86 % 1013,3 hPa 0,0 l/m 14,0 km/h (3 Bft) W 270 4,5 C 4,0 C
02.01.2012 21:57 6,6 C 86 % 1013,5 hPa 0,0 l/m 17,3 km/h (3 Bft) W 270 4,4 C 3,4 C
02.01.2012 22:02 6,5 C 85 % 1013,4 hPa 0,0 l/m 9,4 km/h (2 Bft) W 270 4,2 C 4,6 C
02.01.2012 22:07 6,4 C 85 % 1013,4 hPa 0,0 l/m 23,0 km/h (4 Bft) W-SW 247 4,1 C 2,5 C
02.01.2012 22:12 6,4 C 85 % 1013,5 hPa 0,0 l/m 4,0 km/h (1 Bft) W 270 4,1 C 6,4 C
02.01.2012 22:17 6,3 C 85 % 1013,6 hPa 0,0 l/m 9,4 km/h (2 Bft) W-SW 247 4,0 C 4,3 C
02.01.2012 22:22 6,2 C 84 % 1013,6 hPa 0,0 l/m 7,2 km/h (2 Bft) SW 225 3,7 C 4,8 C
02.01.2012 22:27 6,2 C 84 % 1013,5 hPa 0,0 l/m 13,3 km/h (3 Bft) W-SW 247 3,7 C 3,5 C
02.01.2012 22:32 6,1 C 84 % 1013,8 hPa 0,0 l/m 9,7 km/h (2 Bft) W 270 3,6 C 4,0 C
02.01.2012 22:37 6,1 C 84 % 1013,7 hPa 0,0 l/m 6,8 km/h (2 Bft) W-SW 247 3,6 C 4,7 C
02.01.2012 22:42 6,1 C 84 % 1013,9 hPa 0,0 l/m 8,3 km/h (2 Bft) W 270 3,6 C 4,4 C
02.01.2012 22:47 6,0 C 84 % 1014,0 hPa 0,0 l/m 6,1 km/h (2 Bft) W 270 3,5 C 4,8 C
02.01.2012 22:52 5,9 C 84 % 1014,1 hPa 0,0 l/m 11,5 km/h (2 Bft) SW 225 3,4 C 3,4 C
02.01.2012 22:57 5,9 C 85 % 1014,2 hPa 0,0 l/m 7,6 km/h (2 Bft) SW 225 3,6 C 4,3 C
02.01.2012 23:02 5,9 C 85 % 1014,2 hPa 0,0 l/m 9,4 km/h (2 Bft) W-SW 247 3,6 C 3,9 C
02.01.2012 23:07 5,9 C 85 % 1014,3 hPa 0,0 l/m 8,6 km/h (2 Bft) W 270 3,6 C 4,0 C
02.01.2012 23:12 5,9 C 85 % 1014,2 hPa 0,0 l/m 7,9 km/h (2 Bft) SW 225 3,6 C 4,2 C
02.01.2012 23:17 5,9 C 85 % 1014,3 hPa 0,0 l/m 7,2 km/h (2 Bft) SW 225 3,6 C 4,4 C
02.01.2012 23:22 5,8 C 85 % 1014,5 hPa 0,0 l/m 10,1 km/h (2 Bft) W-SW 247 3,5 C 3,6 C
02.01.2012 23:27 5,8 C 85 % 1014,3 hPa 0,0 l/m 7,9 km/h (2 Bft) SW 225 3,5 C 4,1 C
02.01.2012 23:32 5,6 C 85 % 1014,5 hPa 0,0 l/m 17,3 km/h (3 Bft) W-SW 247 3,3 C 2,2 C
02.01.2012 23:37 5,6 C 85 % 1014,5 hPa 0,0 l/m 10,1 km/h (2 Bft) W 270 3,3 C 3,4 C
02.01.2012 23:42 5,6 C 85 % 1014,5 hPa 0,0 l/m 13,3 km/h (3 Bft) W-SW 247 3,3 C 2,8 C
02.01.2012 23:47 5,5 C 85 % 1014,7 hPa 0,0 l/m 9,4 km/h (2 Bft) W-SW 247 3,2 C 3,4 C
02.01.2012 23:52 5,4 C 85 % 1014,7 hPa 0,0 l/m 12,2 km/h (2 Bft) W 270 3,1 C 2,7 C
02.01.2012 23:57 5,4 C 85 % 1015,0 hPa 0,0 l/m 7,6 km/h (2 Bft) W 270 3,1 C 3,7 C
_ Min-Zeit 23:52 22:22 04:37 - 13:22 - - 23:52 23:32
Minimum _ 5,4 C 84 % 1001,5 hPa - 2,9 km/h (1 Bft) - - 3,1 C 2,2 C
_ Max-Zeit 05:07 00:02 23:57 08:37 03:22 - - 05:07 05:07
Maximum _ 12,3 C 93 % 1015,0 hPa 0,5 l/m 24,8 km/h
S (4 Bft)
- - 10,0 C 12,3 C
Durchschnitt _ 9,3 C 89 % 1006,6 hPa #4,1 l/m 10,8 km/h (2 Bft) W-SW - 7,5 C 8,5 C
(c) by David Heller